sensor_id;sensor_type;location;lat;lon;timestamp;temperature;humidity
10384;DHT22;5238;43.508;4.980;2023-04-15T00:00:33;13.80;91.30
10384;DHT22;5238;43.508;4.980;2023-04-15T00:03:14;13.80;91.30
10384;DHT22;5238;43.508;4.980;2023-04-15T00:05:56;13.80;91.30
10384;DHT22;5238;43.508;4.980;2023-04-15T00:08:25;13.80;91.30
10384;DHT22;5238;43.508;4.980;2023-04-15T00:10:53;13.70;91.30
10384;DHT22;5238;43.508;4.980;2023-04-15T00:13:22;13.70;91.30
10384;DHT22;5238;43.508;4.980;2023-04-15T00:15:49;13.70;91.30
10384;DHT22;5238;43.508;4.980;2023-04-15T00:18:16;13.70;91.30
10384;DHT22;5238;43.508;4.980;2023-04-15T00:20:47;13.70;91.30
10384;DHT22;5238;43.508;4.980;2023-04-15T00:23:20;13.70;91.30
10384;DHT22;5238;43.508;4.980;2023-04-15T00:25:54;13.70;91.30
10384;DHT22;5238;43.508;4.980;2023-04-15T00:28:23;13.70;91.30
10384;DHT22;5238;43.508;4.980;2023-04-15T00:30:57;13.70;91.30
10384;DHT22;5238;43.508;4.980;2023-04-15T00:33:25;13.70;91.30
10384;DHT22;5238;43.508;4.980;2023-04-15T00:35:54;13.70;91.30
10384;DHT22;5238;43.508;4.980;2023-04-15T00:38:29;13.70;91.30
10384;DHT22;5238;43.508;4.980;2023-04-15T00:40:56;13.60;91.30
10384;DHT22;5238;43.508;4.980;2023-04-15T00:43:28;13.60;91.30
10384;DHT22;5238;43.508;4.980;2023-04-15T00:45:58;13.60;91.30
10384;DHT22;5238;43.508;4.980;2023-04-15T00:48:28;13.50;91.30
10384;DHT22;5238;43.508;4.980;2023-04-15T00:50:58;13.50;91.30
10384;DHT22;5238;43.508;4.980;2023-04-15T00:53:27;13.50;91.30
10384;DHT22;5238;43.508;4.980;2023-04-15T00:55:54;13.40;91.30
10384;DHT22;5238;43.508;4.980;2023-04-15T00:58:22;13.40;91.30
10384;DHT22;5238;43.508;4.980;2023-04-15T01:00:51;13.30;91.30
10384;DHT22;5238;43.508;4.980;2023-04-15T01:03:24;13.20;91.30
10384;DHT22;5238;43.508;4.980;2023-04-15T01:05:58;13.20;91.30
10384;DHT22;5238;43.508;4.980;2023-04-15T01:08:33;13.20;91.30
10384;DHT22;5238;43.508;4.980;2023-04-15T01:11:05;13.10;91.30
10384;DHT22;5238;43.508;4.980;2023-04-15T01:13:41;13.10;91.30
10384;DHT22;5238;43.508;4.980;2023-04-15T01:16:16;13.10;91.30
10384;DHT22;5238;43.508;4.980;2023-04-15T01:18:45;13.00;91.30
10384;DHT22;5238;43.508;4.980;2023-04-15T01:21:26;13.00;91.30
10384;DHT22;5238;43.508;4.980;2023-04-15T01:23:59;12.90;91.30
10384;DHT22;5238;43.508;4.980;2023-04-15T01:26:45;12.90;91.30
10384;DHT22;5238;43.508;4.980;2023-04-15T01:29:20;12.90;91.30
10384;DHT22;5238;43.508;4.980;2023-04-15T01:31:50;12.80;91.30
10384;DHT22;5238;43.508;4.980;2023-04-15T01:34:19;12.80;91.30
10384;DHT22;5238;43.508;4.980;2023-04-15T01:36:47;12.80;91.30
10384;DHT22;5238;43.508;4.980;2023-04-15T01:39:24;12.70;91.30
10384;DHT22;5238;43.508;4.980;2023-04-15T01:42:01;12.70;91.30
10384;DHT22;5238;43.508;4.980;2023-04-15T01:44:31;12.70;91.30
10384;DHT22;5238;43.508;4.980;2023-04-15T01:47:05;12.70;91.30
10384;DHT22;5238;43.508;4.980;2023-04-15T01:49:34;12.70;91.30
10384;DHT22;5238;43.508;4.980;2023-04-15T01:52:01;12.70;91.30
10384;DHT22;5238;43.508;4.980;2023-04-15T01:54:35;12.70;91.30
10384;DHT22;5238;43.508;4.980;2023-04-15T01:57:04;12.70;91.30
10384;DHT22;5238;43.508;4.980;2023-04-15T01:59:32;12.70;91.30
10384;DHT22;5238;43.508;4.980;2023-04-15T02:02:03;12.70;91.30
10384;DHT22;5238;43.508;4.980;2023-04-15T02:04:32;12.70;91.30
10384;DHT22;5238;43.508;4.980;2023-04-15T02:07:01;12.70;91.30
10384;DHT22;5238;43.508;4.980;2023-04-15T02:09:28;12.80;91.30
10384;DHT22;5238;43.508;4.980;2023-04-15T02:11:59;12.80;91.30
10384;DHT22;5238;43.508;4.980;2023-04-15T02:14:34;12.80;91.30
10384;DHT22;5238;43.508;4.980;2023-04-15T02:17:04;12.90;91.30
10384;DHT22;5238;43.508;4.980;2023-04-15T02:19:38;12.90;91.30
10384;DHT22;5238;43.508;4.980;2023-04-15T02:22:07;12.90;91.30
10384;DHT22;5238;43.508;4.980;2023-04-15T02:24:43;12.90;91.30
10384;DHT22;5238;43.508;4.980;2023-04-15T02:27:14;12.90;91.30
10384;DHT22;5238;43.508;4.980;2023-04-15T02:29:51;12.90;91.30
10384;DHT22;5238;43.508;4.980;2023-04-15T02:32:21;12.90;91.30
10384;DHT22;5238;43.508;4.980;2023-04-15T02:34:50;12.90;91.30
10384;DHT22;5238;43.508;4.980;2023-04-15T02:37:21;13.00;91.30
10384;DHT22;5238;43.508;4.980;2023-04-15T02:39:56;13.00;91.30
10384;DHT22;5238;43.508;4.980;2023-04-15T02:42:37;12.90;91.30
10384;DHT22;5238;43.508;4.980;2023-04-15T02:45:12;13.00;91.30
10384;DHT22;5238;43.508;4.980;2023-04-15T02:47:39;13.00;91.30
10384;DHT22;5238;43.508;4.980;2023-04-15T02:50:09;13.00;91.30
10384;DHT22;5238;43.508;4.980;2023-04-15T02:52:43;13.00;91.30
10384;DHT22;5238;43.508;4.980;2023-04-15T02:55:24;13.00;91.30
10384;DHT22;5238;43.508;4.980;2023-04-15T02:57:53;13.00;91.30
10384;DHT22;5238;43.508;4.980;2023-04-15T03:00:28;13.00;91.30
10384;DHT22;5238;43.508;4.980;2023-04-15T03:03:04;13.00;91.30
10384;DHT22;5238;43.508;4.980;2023-04-15T03:05:39;12.90;91.30
10384;DHT22;5238;43.508;4.980;2023-04-15T03:08:07;12.90;91.30
10384;DHT22;5238;43.508;4.980;2023-04-15T03:10:39;12.90;91.30
10384;DHT22;5238;43.508;4.980;2023-04-15T03:13:06;12.90;91.30
10384;DHT22;5238;43.508;4.980;2023-04-15T03:15:37;12.80;91.30
10384;DHT22;5238;43.508;4.980;2023-04-15T03:18:04;12.80;91.30
10384;DHT22;5238;43.508;4.980;2023-04-15T03:20:38;12.80;91.30
10384;DHT22;5238;43.508;4.980;2023-04-15T03:23:05;12.90;91.30
10384;DHT22;5238;43.508;4.980;2023-04-15T03:25:33;12.90;91.30
10384;DHT22;5238;43.508;4.980;2023-04-15T03:28:02;12.90;91.30
10384;DHT22;5238;43.508;4.980;2023-04-15T03:30:53;12.90;91.30
10384;DHT22;5238;43.508;4.980;2023-04-15T03:33:21;12.90;91.30
10384;DHT22;5238;43.508;4.980;2023-04-15T03:35:49;12.90;91.30
10384;DHT22;5238;43.508;4.980;2023-04-15T03:38:22;12.90;91.30
10384;DHT22;5238;43.508;4.980;2023-04-15T03:40:50;12.90;91.30
10384;DHT22;5238;43.508;4.980;2023-04-15T03:43:18;12.90;91.30
10384;DHT22;5238;43.508;4.980;2023-04-15T03:45:53;12.90;91.30
10384;DHT22;5238;43.508;4.980;2023-04-15T03:48:24;12.80;91.30
10384;DHT22;5238;43.508;4.980;2023-04-15T03:50:53;12.80;91.30
10384;DHT22;5238;43.508;4.980;2023-04-15T03:53:21;12.80;91.30
10384;DHT22;5238;43.508;4.980;2023-04-15T03:55:55;12.80;91.30
10384;DHT22;5238;43.508;4.980;2023-04-15T03:58:23;12.70;91.30
10384;DHT22;5238;43.508;4.980;2023-04-15T04:01:02;12.70;91.30
10384;DHT22;5238;43.508;4.980;2023-04-15T04:03:48;12.70;91.30
10384;DHT22;5238;43.508;4.980;2023-04-15T04:06:16;12.70;91.30
10384;DHT22;5238;43.508;4.980;2023-04-15T04:08:46;12.70;91.30
10384;DHT22;5238;43.508;4.980;2023-04-15T04:11:14;12.70;91.30
10384;DHT22;5238;43.508;4.980;2023-04-15T04:13:49;12.70;91.30
10384;DHT22;5238;43.508;4.980;2023-04-15T04:16:20;12.70;91.30
10384;DHT22;5238;43.508;4.980;2023-04-15T04:18:48;12.70;91.30
10384;DHT22;5238;43.508;4.980;2023-04-15T04:21:16;12.70;91.30
10384;DHT22;5238;43.508;4.980;2023-04-15T04:23:51;12.70;91.30
10384;DHT22;5238;43.508;4.980;2023-04-15T04:26:28;12.70;91.30
10384;DHT22;5238;43.508;4.980;2023-04-15T04:28:56;12.70;91.30
10384;DHT22;5238;43.508;4.980;2023-04-15T04:31:29;12.70;91.30
10384;DHT22;5238;43.508;4.980;2023-04-15T04:33:59;12.70;91.30
10384;DHT22;5238;43.508;4.980;2023-04-15T04:36:26;12.70;91.30
10384;DHT22;5238;43.508;4.980;2023-04-15T04:39:00;12.60;91.30
10384;DHT22;5238;43.508;4.980;2023-04-15T04:41:41;12.60;91.30
10384;DHT22;5238;43.508;4.980;2023-04-15T04:44:22;12.60;91.30
10384;DHT22;5238;43.508;4.980;2023-04-15T04:47:14;12.60;91.30
10384;DHT22;5238;43.508;4.980;2023-04-15T04:49:49;12.60;91.30
10384;DHT22;5238;43.508;4.980;2023-04-15T04:52:19;12.60;91.30
10384;DHT22;5238;43.508;4.980;2023-04-15T04:54:47;12.60;91.30
10384;DHT22;5238;43.508;4.980;2023-04-15T04:57:16;12.60;91.30
10384;DHT22;5238;43.508;4.980;2023-04-15T04:59:47;12.50;91.30
10384;DHT22;5238;43.508;4.980;2023-04-15T05:02:18;12.50;91.30
10384;DHT22;5238;43.508;4.980;2023-04-15T05:04:51;12.50;91.30
10384;DHT22;5238;43.508;4.980;2023-04-15T05:07:26;12.50;91.30
10384;DHT22;5238;43.508;4.980;2023-04-15T05:09:54;12.40;91.30
10384;DHT22;5238;43.508;4.980;2023-04-15T05:12:23;12.40;91.30
10384;DHT22;5238;43.508;4.980;2023-04-15T05:14:51;12.40;91.30
10384;DHT22;5238;43.508;4.980;2023-04-15T05:17:20;12.40;91.30
10384;DHT22;5238;43.508;4.980;2023-04-15T05:19:54;12.40;91.30
10384;DHT22;5238;43.508;4.980;2023-04-15T05:22:28;12.40;91.30
10384;DHT22;5238;43.508;4.980;2023-04-15T05:24:56;12.40;91.30
10384;DHT22;5238;43.508;4.980;2023-04-15T05:27:28;12.50;91.30
10384;DHT22;5238;43.508;4.980;2023-04-15T05:29:57;12.50;91.30
10384;DHT22;5238;43.508;4.980;2023-04-15T05:32:34;12.50;91.30
10384;DHT22;5238;43.508;4.980;2023-04-15T05:35:01;12.50;91.30
10384;DHT22;5238;43.508;4.980;2023-04-15T05:37:35;12.60;91.30
10384;DHT22;5238;43.508;4.980;2023-04-15T05:40:02;12.60;91.30
10384;DHT22;5238;43.508;4.980;2023-04-15T05:42:30;12.60;91.30
10384;DHT22;5238;43.508;4.980;2023-04-15T05:44:58;12.70;91.30
10384;DHT22;5238;43.508;4.980;2023-04-15T05:47:38;12.70;91.30
10384;DHT22;5238;43.508;4.980;2023-04-15T05:50:07;12.70;91.30
10384;DHT22;5238;43.508;4.980;2023-04-15T05:52:42;12.80;91.30
10384;DHT22;5238;43.508;4.980;2023-04-15T05:55:10;12.80;91.30
10384;DHT22;5238;43.508;4.980;2023-04-15T05:57:41;12.90;91.30
10384;DHT22;5238;43.508;4.980;2023-04-15T06:00:13;13.00;91.30
10384;DHT22;5238;43.508;4.980;2023-04-15T06:02:49;13.10;91.30
10384;DHT22;5238;43.508;4.980;2023-04-15T06:05:33;13.20;91.30
10384;DHT22;5238;43.508;4.980;2023-04-15T06:08:00;13.30;91.30
10384;DHT22;5238;43.508;4.980;2023-04-15T06:10:28;13.50;91.30
10384;DHT22;5238;43.508;4.980;2023-04-15T06:13:09;13.60;91.30
10384;DHT22;5238;43.508;4.980;2023-04-15T06:15:51;13.80;91.30
10384;DHT22;5238;43.508;4.980;2023-04-15T06:18:37;14.00;91.30
10384;DHT22;5238;43.508;4.980;2023-04-15T06:21:15;14.20;91.30
10384;DHT22;5238;43.508;4.980;2023-04-15T06:23:46;14.40;91.30
10384;DHT22;5238;43.508;4.980;2023-04-15T06:26:21;14.70;91.30
10384;DHT22;5238;43.508;4.980;2023-04-15T06:28:56;14.90;91.30
10384;DHT22;5238;43.508;4.980;2023-04-15T06:31:37;15.10;91.30
10384;DHT22;5238;43.508;4.980;2023-04-15T06:34:23;15.40;91.30
10384;DHT22;5238;43.508;4.980;2023-04-15T06:37:03;15.70;91.30
10384;DHT22;5238;43.508;4.980;2023-04-15T06:39:43;16.00;91.30
10384;DHT22;5238;43.508;4.980;2023-04-15T06:42:14;16.30;91.30
10384;DHT22;5238;43.508;4.980;2023-04-15T06:44:42;16.60;91.30
10384;DHT22;5238;43.508;4.980;2023-04-15T06:47:18;16.90;91.30
10384;DHT22;5238;43.508;4.980;2023-04-15T06:49:49;17.20;91.30
10384;DHT22;5238;43.508;4.980;2023-04-15T06:52:25;17.50;91.30
10384;DHT22;5238;43.508;4.980;2023-04-15T06:54:52;17.80;91.30
10384;DHT22;5238;43.508;4.980;2023-04-15T06:57:22;18.10;91.30
10384;DHT22;5238;43.508;4.980;2023-04-15T07:00:03;18.30;91.30
10384;DHT22;5238;43.508;4.980;2023-04-15T07:02:44;18.60;91.30
10384;DHT22;5238;43.508;4.980;2023-04-15T07:05:15;18.90;91.30
10384;DHT22;5238;43.508;4.980;2023-04-15T07:07:44;19.10;91.30
10384;DHT22;5238;43.508;4.980;2023-04-15T07:10:13;19.40;91.30
10384;DHT22;5238;43.508;4.980;2023-04-15T07:12:52;19.60;91.30
10384;DHT22;5238;43.508;4.980;2023-04-15T07:15:24;19.60;91.30
10384;DHT22;5238;43.508;4.980;2023-04-15T07:17:59;19.70;91.30
10384;DHT22;5238;43.508;4.980;2023-04-15T07:20:28;19.80;91.30
10384;DHT22;5238;43.508;4.980;2023-04-15T07:22:55;20.00;91.30
10384;DHT22;5238;43.508;4.980;2023-04-15T07:25:22;20.20;91.30
10384;DHT22;5238;43.508;4.980;2023-04-15T07:27:49;20.40;91.30
10384;DHT22;5238;43.508;4.980;2023-04-15T07:30:19;20.60;91.30
10384;DHT22;5238;43.508;4.980;2023-04-15T07:32:47;20.70;91.30
10384;DHT22;5238;43.508;4.980;2023-04-15T07:35:14;20.80;91.30
10384;DHT22;5238;43.508;4.980;2023-04-15T07:37:43;21.00;91.30
10384;DHT22;5238;43.508;4.980;2023-04-15T07:40:50;21.20;91.30
10384;DHT22;5238;43.508;4.980;2023-04-15T07:43:17;21.40;91.30
10384;DHT22;5238;43.508;4.980;2023-04-15T07:45:52;21.60;91.30
10384;DHT22;5238;43.508;4.980;2023-04-15T07:48:26;21.80;91.30
10384;DHT22;5238;43.508;4.980;2023-04-15T07:50:53;21.90;91.30
10384;DHT22;5238;43.508;4.980;2023-04-15T07:53:21;22.10;91.30
10384;DHT22;5238;43.508;4.980;2023-04-15T07:55:48;22.30;91.30
10384;DHT22;5238;43.508;4.980;2023-04-15T07:58:15;22.50;91.30
10384;DHT22;5238;43.508;4.980;2023-04-15T08:00:42;22.60;91.30
10384;DHT22;5238;43.508;4.980;2023-04-15T08:03:09;22.60;91.30
10384;DHT22;5238;43.508;4.980;2023-04-15T08:05:37;22.60;91.30
10384;DHT22;5238;43.508;4.980;2023-04-15T08:08:04;22.60;91.30
10384;DHT22;5238;43.508;4.980;2023-04-15T08:10:33;22.70;91.30
10384;DHT22;5238;43.508;4.980;2023-04-15T08:18:23;23.00;91.30
10384;DHT22;5238;43.508;4.980;2023-04-15T08:20:51;23.10;91.30
10384;DHT22;5238;43.508;4.980;2023-04-15T08:23:19;23.20;91.30
10384;DHT22;5238;43.508;4.980;2023-04-15T08:26:05;23.30;91.30
10384;DHT22;5238;43.508;4.980;2023-04-15T08:28:33;23.40;91.30
10384;DHT22;5238;43.508;4.980;2023-04-15T08:31:01;23.50;91.30
10384;DHT22;5238;43.508;4.980;2023-04-15T08:33:38;23.70;91.30
10384;DHT22;5238;43.508;4.980;2023-04-15T08:36:06;23.80;91.30
10384;DHT22;5238;43.508;4.980;2023-04-15T08:38:41;23.80;91.30
10384;DHT22;5238;43.508;4.980;2023-04-15T08:41:19;23.90;91.30
10384;DHT22;5238;43.508;4.980;2023-04-15T08:43:52;24.00;91.30
10384;DHT22;5238;43.508;4.980;2023-04-15T08:46:29;24.10;91.30
10384;DHT22;5238;43.508;4.980;2023-04-15T08:49:10;24.00;90.80
10384;DHT22;5238;43.508;4.980;2023-04-15T08:51:46;24.10;90.50
10384;DHT22;5238;43.508;4.980;2023-04-15T08:54:14;24.10;89.10
10384;DHT22;5238;43.508;4.980;2023-04-15T08:56:47;24.10;88.90
10384;DHT22;5238;43.508;4.980;2023-04-15T08:59:29;24.20;88.80
10384;DHT22;5238;43.508;4.980;2023-04-15T09:02:00;24.10;87.30
10384;DHT22;5238;43.508;4.980;2023-04-15T09:04:28;24.20;86.80
10384;DHT22;5238;43.508;4.980;2023-04-15T09:06:59;24.30;86.60
10384;DHT22;5238;43.508;4.980;2023-04-15T09:09:33;24.50;86.80
10384;DHT22;5238;43.508;4.980;2023-04-15T09:12:04;24.60;87.10
10384;DHT22;5238;43.508;4.980;2023-04-15T09:14:57;24.90;87.10
10384;DHT22;5238;43.508;4.980;2023-04-15T09:18:02;25.00;86.10
10384;DHT22;5238;43.508;4.980;2023-04-15T09:20:32;25.30;85.10
10384;DHT22;5238;43.508;4.980;2023-04-15T09:23:11;25.20;83.70
10384;DHT22;5238;43.508;4.980;2023-04-15T09:25:42;25.20;84.40
10384;DHT22;5238;43.508;4.980;2023-04-15T09:28:28;25.10;84.50
10384;DHT22;5238;43.508;4.980;2023-04-15T09:31:04;25.10;85.00
10384;DHT22;5238;43.508;4.980;2023-04-15T09:33:31;25.10;85.10
10384;DHT22;5238;43.508;4.980;2023-04-15T09:36:00;25.10;84.70
10384;DHT22;5238;43.508;4.980;2023-04-15T09:38:29;25.00;84.90
10384;DHT22;5238;43.508;4.980;2023-04-15T09:40:57;25.00;85.40
10384;DHT22;5238;43.508;4.980;2023-04-15T09:43:39;24.90;85.50
10384;DHT22;5238;43.508;4.980;2023-04-15T09:46:08;24.90;85.40
10384;DHT22;5238;43.508;4.980;2023-04-15T09:48:36;25.00;85.30
10384;DHT22;5238;43.508;4.980;2023-04-15T09:51:05;25.00;85.60
10384;DHT22;5238;43.508;4.980;2023-04-15T09:53:37;25.10;85.90
10384;DHT22;5238;43.508;4.980;2023-04-15T09:56:14;25.20;85.70
10384;DHT22;5238;43.508;4.980;2023-04-15T09:58:44;25.40;85.90
10384;DHT22;5238;43.508;4.980;2023-04-15T10:01:13;25.60;85.20
10384;DHT22;5238;43.508;4.980;2023-04-15T10:03:42;25.90;85.60
10384;DHT22;5238;43.508;4.980;2023-04-15T10:06:16;26.10;85.30
10384;DHT22;5238;43.508;4.980;2023-04-15T10:08:44;26.20;83.50
10384;DHT22;5238;43.508;4.980;2023-04-15T10:11:30;26.10;83.40
10384;DHT22;5238;43.508;4.980;2023-04-15T10:14:24;26.10;83.70
10384;DHT22;5238;43.508;4.980;2023-04-15T10:16:57;26.00;83.20
10384;DHT22;5238;43.508;4.980;2023-04-15T10:19:36;25.80;83.20
10384;DHT22;5238;43.508;4.980;2023-04-15T10:22:15;25.80;84.50
10384;DHT22;5238;43.508;4.980;2023-04-15T10:24:49;25.50;84.20
10384;DHT22;5238;43.508;4.980;2023-04-15T10:48:20;23.60;85.00
10384;DHT22;5238;43.508;4.980;2023-04-15T10:50:55;23.40;85.40
10384;DHT22;5238;43.508;4.980;2023-04-15T10:55:56;22.90;86.60
10384;DHT22;5238;43.508;4.980;2023-04-15T10:58:40;22.80;87.40
10384;DHT22;5238;43.508;4.980;2023-04-15T11:01:14;22.60;87.10
10384;DHT22;5238;43.508;4.980;2023-04-15T11:03:43;22.80;87.10
10384;DHT22;5238;43.508;4.980;2023-04-15T11:06:11;22.80;85.80
10384;DHT22;5238;43.508;4.980;2023-04-15T11:08:56;22.70;85.60
10384;DHT22;5238;43.508;4.980;2023-04-15T11:12:05;22.70;85.40
10384;DHT22;5238;43.508;4.980;2023-04-15T11:14:33;22.60;86.10
10384;DHT22;5238;43.508;4.980;2023-04-15T11:17:01;22.70;86.40
10384;DHT22;5238;43.508;4.980;2023-04-15T11:19:36;22.50;86.40
10384;DHT22;5238;43.508;4.980;2023-04-15T11:22:08;22.40;87.30
10384;DHT22;5238;43.508;4.980;2023-04-15T11:24:35;22.40;88.00
10384;DHT22;5238;43.508;4.980;2023-04-15T11:27:02;22.30;88.10
10384;DHT22;5238;43.508;4.980;2023-04-15T11:29:30;22.20;88.80
10384;DHT22;5238;43.508;4.980;2023-04-15T11:32:04;22.20;87.10
10384;DHT22;5238;43.508;4.980;2023-04-15T11:34:40;22.20;83.30
10384;DHT22;5238;43.508;4.980;2023-04-15T11:37:29;22.20;83.40
10384;DHT22;5238;43.508;4.980;2023-04-15T11:39:58;22.10;82.90
10384;DHT22;5238;43.508;4.980;2023-04-15T11:42:25;22.10;84.10
10384;DHT22;5238;43.508;4.980;2023-04-15T11:45:05;22.00;85.30
10384;DHT22;5238;43.508;4.980;2023-04-15T11:47:34;22.00;85.60
10384;DHT22;5238;43.508;4.980;2023-04-15T11:50:25;21.90;85.60
10384;DHT22;5238;43.508;4.980;2023-04-15T11:52:55;21.90;86.10
10384;DHT22;5238;43.508;4.980;2023-04-15T11:55:24;21.80;83.50
10384;DHT22;5238;43.508;4.980;2023-04-15T11:58:06;21.70;84.00
10384;DHT22;5238;43.508;4.980;2023-04-15T12:00:34;21.60;84.90
10384;DHT22;5238;43.508;4.980;2023-04-15T12:03:11;21.70;84.00
10384;DHT22;5238;43.508;4.980;2023-04-15T12:06:05;21.70;84.50
10384;DHT22;5238;43.508;4.980;2023-04-15T12:09:08;21.70;82.60
10384;DHT22;5238;43.508;4.980;2023-04-15T12:11:44;21.70;81.70
10384;DHT22;5238;43.508;4.980;2023-04-15T12:14:25;21.60;81.20
10384;DHT22;5238;43.508;4.980;2023-04-15T12:16:56;21.50;82.30
10384;DHT22;5238;43.508;4.980;2023-04-15T12:19:26;21.50;82.00
10384;DHT22;5238;43.508;4.980;2023-04-15T12:21:57;21.50;81.20
10384;DHT22;5238;43.508;4.980;2023-04-15T12:24:31;21.50;79.20
10384;DHT22;5238;43.508;4.980;2023-04-15T12:27:05;21.60;79.40
10384;DHT22;5238;43.508;4.980;2023-04-15T12:29:41;21.60;80.30
10384;DHT22;5238;43.508;4.980;2023-04-15T12:32:10;21.60;81.20
10384;DHT22;5238;43.508;4.980;2023-04-15T12:34:40;21.70;82.00
10384;DHT22;5238;43.508;4.980;2023-04-15T12:37:28;21.70;79.90
10384;DHT22;5238;43.508;4.980;2023-04-15T12:39:55;21.80;78.40
10384;DHT22;5238;43.508;4.980;2023-04-15T12:42:36;22.00;79.80
10384;DHT22;5238;43.508;4.980;2023-04-15T12:45:07;22.00;79.40
10384;DHT22;5238;43.508;4.980;2023-04-15T12:47:34;22.00;78.50
10384;DHT22;5238;43.508;4.980;2023-04-15T12:50:02;22.10;78.20
10384;DHT22;5238;43.508;4.980;2023-04-15T12:52:44;21.90;76.10
10384;DHT22;5238;43.508;4.980;2023-04-15T12:55:11;21.70;75.30
10384;DHT22;5238;43.508;4.980;2023-04-15T12:57:38;21.70;75.70
10384;DHT22;5238;43.508;4.980;2023-04-15T13:00:06;21.60;75.00
10384;DHT22;5238;43.508;4.980;2023-04-15T13:02:34;21.60;74.50
10384;DHT22;5238;43.508;4.980;2023-04-15T13:05:01;21.60;75.00
10384;DHT22;5238;43.508;4.980;2023-04-15T13:07:45;21.60;75.30
10384;DHT22;5238;43.508;4.980;2023-04-15T13:10:28;21.50;74.80
10384;DHT22;5238;43.508;4.980;2023-04-15T13:13:05;21.50;75.80
10384;DHT22;5238;43.508;4.980;2023-04-15T13:15:41;21.50;76.70
10384;DHT22;5238;43.508;4.980;2023-04-15T13:18:10;21.40;76.50
10384;DHT22;5238;43.508;4.980;2023-04-15T13:20:38;21.30;76.40
10384;DHT22;5238;43.508;4.980;2023-04-15T13:23:08;21.20;77.90
10384;DHT22;5238;43.508;4.980;2023-04-15T13:25:49;21.10;78.30
10384;DHT22;5238;43.508;4.980;2023-04-15T13:28:30;21.10;78.60
10384;DHT22;5238;43.508;4.980;2023-04-15T13:31:15;21.00;78.10
10384;DHT22;5238;43.508;4.980;2023-04-15T13:33:44;21.00;78.50
10384;DHT22;5238;43.508;4.980;2023-04-15T13:36:13;21.00;78.00
10384;DHT22;5238;43.508;4.980;2023-04-15T13:38:58;21.00;77.80
10384;DHT22;5238;43.508;4.980;2023-04-15T13:41:31;21.00;77.70
10384;DHT22;5238;43.508;4.980;2023-04-15T13:43:58;21.10;77.60
10384;DHT22;5238;43.508;4.980;2023-04-15T13:46:41;21.10;77.80
10384;DHT22;5238;43.508;4.980;2023-04-15T13:49:18;21.00;77.90
10384;DHT22;5238;43.508;4.980;2023-04-15T13:51:56;21.00;77.60
10384;DHT22;5238;43.508;4.980;2023-04-15T13:54:33;21.00;79.20
10384;DHT22;5238;43.508;4.980;2023-04-15T13:57:02;20.90;81.70
10384;DHT22;5238;43.508;4.980;2023-04-15T13:59:35;20.70;84.40
10384;DHT22;5238;43.508;4.980;2023-04-15T14:02:06;20.50;85.70
10384;DHT22;5238;43.508;4.980;2023-04-15T14:04:40;20.30;87.30
10384;DHT22;5238;43.508;4.980;2023-04-15T14:07:22;20.10;88.10
10384;DHT22;5238;43.508;4.980;2023-04-15T14:09:56;20.00;88.70
10384;DHT22;5238;43.508;4.980;2023-04-15T14:12:29;19.90;89.80
10384;DHT22;5238;43.508;4.980;2023-04-15T14:15:02;19.90;89.80
10384;DHT22;5238;43.508;4.980;2023-04-15T14:17:30;19.80;89.50
10384;DHT22;5238;43.508;4.980;2023-04-15T14:20:13;19.80;89.00
10384;DHT22;5238;43.508;4.980;2023-04-15T14:22:43;19.70;89.40
10384;DHT22;5238;43.508;4.980;2023-04-15T14:25:15;19.70;89.90
10384;DHT22;5238;43.508;4.980;2023-04-15T14:27:42;19.80;90.40
10384;DHT22;5238;43.508;4.980;2023-04-15T14:30:11;19.80;90.30
10384;DHT22;5238;43.508;4.980;2023-04-15T14:32:53;19.70;88.80
10384;DHT22;5238;43.508;4.980;2023-04-15T14:35:28;19.70;88.40
10384;DHT22;5238;43.508;4.980;2023-04-15T14:38:01;19.70;88.20
10384;DHT22;5238;43.508;4.980;2023-04-15T14:40:43;19.60;88.60
10384;DHT22;5238;43.508;4.980;2023-04-15T14:43:15;19.60;89.00
10384;DHT22;5238;43.508;4.980;2023-04-15T14:45:52;19.70;89.30
10384;DHT22;5238;43.508;4.980;2023-04-15T14:48:37;19.70;89.30
10384;DHT22;5238;43.508;4.980;2023-04-15T14:51:13;19.70;88.10
10384;DHT22;5238;43.508;4.980;2023-04-15T14:53:45;19.70;87.60
10384;DHT22;5238;43.508;4.980;2023-04-15T14:56:28;19.60;87.50
10384;DHT22;5238;43.508;4.980;2023-04-15T14:59:15;19.50;87.10
10384;DHT22;5238;43.508;4.980;2023-04-15T15:02:15;19.40;86.60
10384;DHT22;5238;43.508;4.980;2023-04-15T15:04:56;19.30;87.80
10384;DHT22;5238;43.508;4.980;2023-04-15T15:07:36;19.20;88.80
10384;DHT22;5238;43.508;4.980;2023-04-15T15:10:09;19.10;88.60
10384;DHT22;5238;43.508;4.980;2023-04-15T15:12:47;19.00;89.00
10384;DHT22;5238;43.508;4.980;2023-04-15T15:15:15;19.00;89.50
10384;DHT22;5238;43.508;4.980;2023-04-15T15:17:45;18.90;90.30
10384;DHT22;5238;43.508;4.980;2023-04-15T15:20:12;18.80;89.90
10384;DHT22;5238;43.508;4.980;2023-04-15T15:22:41;18.70;90.90
10384;DHT22;5238;43.508;4.980;2023-04-15T15:25:08;18.70;90.80
10384;DHT22;5238;43.508;4.980;2023-04-15T15:27:35;18.70;90.90
10384;DHT22;5238;43.508;4.980;2023-04-15T15:30:04;18.70;90.80
10384;DHT22;5238;43.508;4.980;2023-04-15T15:32:32;18.70;90.70
10384;DHT22;5238;43.508;4.980;2023-04-15T15:35:00;18.70;90.70
10384;DHT22;5238;43.508;4.980;2023-04-15T15:37:29;18.60;90.40
10384;DHT22;5238;43.508;4.980;2023-04-15T15:39:56;18.70;90.80
10384;DHT22;5238;43.508;4.980;2023-04-15T15:42:42;18.60;90.70
10384;DHT22;5238;43.508;4.980;2023-04-15T15:45:13;18.50;90.60
10384;DHT22;5238;43.508;4.980;2023-04-15T15:47:48;18.40;91.30
10384;DHT22;5238;43.508;4.980;2023-04-15T15:50:15;18.30;91.30
10384;DHT22;5238;43.508;4.980;2023-04-15T15:52:42;18.30;91.30
10384;DHT22;5238;43.508;4.980;2023-04-15T15:55:10;18.20;91.30
10384;DHT22;5238;43.508;4.980;2023-04-15T15:57:37;18.00;91.30
10384;DHT22;5238;43.508;4.980;2023-04-15T16:00:05;17.80;91.30
10384;DHT22;5238;43.508;4.980;2023-04-15T16:02:34;17.60;91.30
10384;DHT22;5238;43.508;4.980;2023-04-15T16:05:02;17.40;91.30
10384;DHT22;5238;43.508;4.980;2023-04-15T16:07:30;17.30;91.30
10384;DHT22;5238;43.508;4.980;2023-04-15T16:10:01;17.20;91.30
10384;DHT22;5238;43.508;4.980;2023-04-15T16:12:49;17.20;91.30
10384;DHT22;5238;43.508;4.980;2023-04-15T16:15:17;17.10;91.30
10384;DHT22;5238;43.508;4.980;2023-04-15T16:18:00;17.10;91.30
10384;DHT22;5238;43.508;4.980;2023-04-15T16:20:28;17.10;91.30
10384;DHT22;5238;43.508;4.980;2023-04-15T16:22:56;17.10;91.30
10384;DHT22;5238;43.508;4.980;2023-04-15T16:25:33;17.10;91.30
10384;DHT22;5238;43.508;4.980;2023-04-15T16:28:00;17.20;91.30
10384;DHT22;5238;43.508;4.980;2023-04-15T16:30:27;17.20;91.30
10384;DHT22;5238;43.508;4.980;2023-04-15T16:32:57;17.20;91.30
10384;DHT22;5238;43.508;4.980;2023-04-15T16:35:28;17.20;91.30
10384;DHT22;5238;43.508;4.980;2023-04-15T16:37:56;17.20;91.30
10384;DHT22;5238;43.508;4.980;2023-04-15T16:40:24;17.10;91.30
10384;DHT22;5238;43.508;4.980;2023-04-15T16:42:51;17.10;91.30
10384;DHT22;5238;43.508;4.980;2023-04-15T16:45:18;17.10;91.30
10384;DHT22;5238;43.508;4.980;2023-04-15T16:47:46;17.00;91.30
10384;DHT22;5238;43.508;4.980;2023-04-15T16:50:16;17.00;91.30